Time;durP1;ratioP1;P1;durP2;ratioP2;P2;SDS_P1;SDS_P2;PMS_P1;PMS_P2;Temp;Humidity;BMP_temperature;BMP_pressure;BME280_temperature;BME280_humidity;BME280_pressure;Samples;Min_cycle;Max_cycle;Signal;HPM_P1;HPM_P2
2021/10/13 00:00:30;;;;;;;10.40;3.50;;;7.10;89.80;;;;;;5072506;28;20465;-36
2021/10/13 00:02:55;;;;;;;29.05;5.82;;;7.00;90.10;;;;;;5072852;28;20029;-37
2021/10/13 00:05:21;;;;;;;6.55;3.28;;;7.10;90.10;;;;;;5072337;28;20047;-37
2021/10/13 00:07:47;;;;;;;17.48;3.85;;;7.00;90.00;;;;;;5054435;28;20036;-37
2021/10/13 00:10:13;;;;;;;5.72;3.03;;;6.90;90.20;;;;;;5072436;28;20031;-37
2021/10/13 00:12:38;;;;;;;8.77;3.83;;;7.10;90.20;;;;;;5074618;28;20032;-37
2021/10/13 00:15:10;;;;;;;8.80;4.20;;;7.10;90.20;;;;;;5058427;28;20079;-37
2021/10/13 00:17:36;;;;;;;13.88;4.10;;;7.10;89.80;;;;;;5076560;28;20103;-37
2021/10/13 00:20:04;;;;;;;13.90;3.85;;;7.10;90.00;;;;;;5076302;28;20508;-37
2021/10/13 00:22:30;;;;;;;18.67;4.50;;;7.10;90.00;;;;;;5076381;28;20495;-37
2021/10/13 00:24:55;;;;;;;9.02;4.57;;;7.10;90.20;;;;;;5076358;28;20030;-38
2021/10/13 00:27:21;;;;;;;10.05;3.58;;;7.00;89.90;;;;;;5076316;28;20439;-37
2021/10/13 00:29:47;;;;;;;12.23;4.38;;;7.10;90.30;;;;;;5076806;28;20024;-37
2021/10/13 00:32:12;;;;;;;6.57;3.85;;;7.00;89.90;;;;;;5076424;28;20031;-37
2021/10/13 00:34:38;;;;;;;13.55;3.80;;;7.00;90.10;;;;;;5076705;28;20044;-37
2021/10/13 00:37:04;;;;;;;10.75;3.72;;;7.00;90.10;;;;;;5076702;28;20027;-38
2021/10/13 00:39:30;;;;;;;11.05;4.00;;;6.90;90.20;;;;;;5076431;28;20023;-38
2021/10/13 00:41:56;;;;;;;16.40;6.32;;;6.90;90.40;;;;;;5076134;28;20024;-37
2021/10/13 00:44:21;;;;;;;13.20;6.47;;;6.80;90.50;;;;;;5076465;28;20050;-37
2021/10/13 00:46:47;;;;;;;12.50;4.50;;;6.80;90.60;;;;;;5075922;28;20040;-37
2021/10/13 00:49:13;;;;;;;13.93;4.75;;;6.80;90.70;;;;;;5076249;28;20541;-38
2021/10/13 00:51:39;;;;;;;12.98;4.45;;;6.80;90.80;;;;;;5076307;28;20028;-38
2021/10/13 00:54:04;;;;;;;11.10;4.50;;;6.80;90.80;;;;;;5076002;28;20476;-38
2021/10/13 00:56:30;;;;;;;11.43;4.88;;;6.70;91.30;;;;;;5075943;28;20032;-37
2021/10/13 00:58:56;;;;;;;14.52;5.03;;;6.70;91.40;;;;;;5076450;28;20035;-38
2021/10/13 01:01:30;;;;;;;11.93;4.47;;;6.70;91.40;;;;;;5075522;28;20162;-38
2021/10/13 01:04:26;;;;;;;5.45;3.85;;;6.60;91.30;;;;;;5075778;28;20142;-38
2021/10/13 01:07:17;;;;;;;13.00;3.55;;;6.50;91.40;;;;;;5074284;28;20033;-38
2021/10/13 01:09:51;;;;;;;;;;;6.40;91.30;;;;;;5074984;28;20052;-38
2021/10/13 01:12:44;;;;;;;6.05;3.55;;;6.30;91.40;;;;;;5056604;28;19919;-38
2021/10/13 01:15:43;;;;;;;9.32;3.58;;;6.10;91.30;;;;;;5074160;28;20038;-37
2021/10/13 01:18:14;;;;;;;10.45;3.88;;;6.00;91.60;;;;;;5074351;28;20020;-38
2021/10/13 01:21:18;;;;;;;8.98;4.10;;;6.00;91.80;;;;;;5073907;28;20145;-37
2021/10/13 01:23:59;;;;;;;8.23;4.30;;;6.00;91.60;;;;;;5060892;28;20052;-37
2021/10/13 01:26:52;;;;;;;7.60;4.45;;;6.00;91.70;;;;;;5073952;28;20027;-36
2021/10/13 01:29:19;;;;;;;12.38;4.32;;;5.90;91.60;;;;;;5074206;28;20039;-37
2021/10/13 01:31:52;;;;;;;10.13;3.38;;;5.80;91.70;;;;;;5073954;28;20031;-37
2021/10/13 01:34:31;;;;;;;7.72;3.28;;;5.70;91.60;;;;;;5073679;28;20052;-36
2021/10/13 01:37:05;;;;;;;10.20;4.63;;;5.70;91.90;;;;;;5074027;28;20056;-37
2021/10/13 01:39:32;;;;;;;11.77;4.40;;;5.60;91.80;;;;;;5073978;28;20024;-36
2021/10/13 01:42:04;;;;;;;6.57;3.83;;;5.60;92.30;;;;;;5074154;28;20027;-36
2021/10/13 01:44:32;;;;;;;9.82;3.85;;;5.80;92.50;;;;;;5073913;28;20037;-37
2021/10/13 01:47:00;;;;;;;7.22;3.58;;;5.80;92.50;;;;;;5073778;28;20016;-37
2021/10/13 01:49:30;;;;;;;7.80;3.95;;;5.80;92.40;;;;;;5074694;28;20017;-37
2021/10/13 01:51:57;;;;;;;12.63;4.63;;;5.90;92.40;;;;;;5073715;28;20028;-37
2021/10/13 01:54:24;;;;;;;10.82;5.68;;;5.90;92.40;;;;;;5073676;28;20056;-37
2021/10/13 01:56:52;;;;;;;7.80;3.95;;;6.00;92.40;;;;;;5073579;28;20070;-37
2021/10/13 01:59:21;;;;;;;14.75;5.15;;;6.20;92.30;;;;;;5073619;28;20040;-37
2021/10/13 02:01:49;;;;;;;11.48;4.50;;;6.30;92.30;;;;;;5073769;28;20099;-38
2021/10/13 02:04:16;;;;;;;10.67;4.00;;;6.40;92.30;;;;;;5033860;28;1121469;-38
2021/10/13 02:06:43;;;;;;;15.02;4.32;;;6.60;92.40;;;;;;5074671;28;20103;-37
2021/10/13 02:09:10;;;;;;;13.75;4.05;;;6.80;91.70;;;;;;5074613;28;20059;-37
2021/10/13 02:11:36;;;;;;;11.68;4.10;;;6.80;91.30;;;;;;5074544;28;20044;-37
2021/10/13 02:14:09;;;;;;;8.38;3.75;;;6.80;90.70;;;;;;5074200;28;20053;-37
2021/10/13 02:16:35;;;;;;;8.57;4.13;;;6.80;91.00;;;;;;5056457;28;20028;-37
2021/10/13 02:19:04;;;;;;;17.08;4.00;;;6.80;90.80;;;;;;5056170;28;20139;-38
2021/10/13 02:21:31;;;;;;;13.38;3.78;;;6.80;90.80;;;;;;5056160;28;20115;-37
2021/10/13 02:23:59;;;;;;;7.70;3.75;;;6.80;91.10;;;;;;5074461;28;20039;-38
2021/10/13 02:26:38;;;;;;;7.90;3.92;;;6.80;91.20;;;;;;5074391;28;20495;-38
2021/10/13 02:29:12;;;;;;;9.68;3.85;;;6.60;91.10;;;;;;5056188;28;20032;-39
2021/10/13 02:31:38;;;;;;;15.73;4.68;;;6.50;91.50;;;;;;5074094;28;20056;-37
2021/10/13 02:34:03;;;;;;;11.13;4.78;;;6.40;91.90;;;;;;5073666;28;20064;-37
2021/10/13 02:36:29;;;;;;;10.18;4.10;;;6.30;91.90;;;;;;5073860;28;20075;-38
2021/10/13 02:38:55;;;;;;;9.00;4.65;;;6.20;92.10;;;;;;5074056;28;20043;-37
2021/10/13 02:41:21;;;;;;;14.30;5.10;;;6.20;92.20;;;;;;5055841;28;20049;-37
2021/10/13 02:43:47;;;;;;;9.20;5.07;;;6.20;92.40;;;;;;5073775;28;20099;-37
2021/10/13 02:46:33;;;;;;;7.43;4.57;;;6.00;92.50;;;;;;5073885;28;20082;-37
2021/10/13 02:49:11;;;;;;;9.63;5.75;;;6.10;92.70;;;;;;5073720;28;20040;-37
2021/10/13 02:51:45;;;;;;;14.05;4.65;;;6.10;92.80;;;;;;5073924;28;20031;-36
2021/10/13 02:54:22;;;;;;;12.57;5.20;;;6.10;92.80;;;;;;5073750;28;20017;-36
2021/10/13 02:56:51;;;;;;;14.95;6.15;;;6.10;93.00;;;;;;5074008;28;20103;-38
2021/10/13 02:59:34;;;;;;;11.73;4.82;;;6.10;92.90;;;;;;5073662;28;20021;-38
2021/10/13 03:02:05;;;;;;;13.82;6.00;;;6.10;92.90;;;;;;5073572;28;20025;-37
2021/10/13 03:04:37;;;;;;;11.07;4.72;;;6.10;92.80;;;;;;5055210;28;20044;-37
2021/10/13 03:07:12;;;;;;;6.78;4.75;;;6.00;92.90;;;;;;5073659;28;20086;-37
2021/10/13 03:09:40;;;;;;;12.60;4.95;;;5.80;92.80;;;;;;5073315;28;20103;-37
2021/10/13 03:12:09;;;;;;;13.48;5.35;;;5.90;92.80;;;;;;5073478;28;20074;-37
2021/10/13 03:14:37;;;;;;;9.43;4.32;;;5.80;92.80;;;;;;5073105;28;20117;-37
2021/10/13 03:17:04;;;;;;;19.27;5.70;;;5.60;92.80;;;;;;5073212;28;20062;-37
2021/10/13 03:19:34;;;;;;;8.38;3.22;;;5.50;92.80;;;;;;5073537;28;20326;-38
2021/10/13 03:22:01;;;;;;;8.68;4.18;;;5.50;92.80;;;;;;5074299;28;20400;-37
2021/10/13 03:24:26;;;;;;;8.63;3.97;;;5.40;92.80;;;;;;5073738;28;20118;-37
2021/10/13 03:26:52;;;;;;;9.63;4.65;;;5.50;93.00;;;;;;5055196;28;20037;-38
2021/10/13 03:29:18;;;;;;;7.60;4.35;;;5.60;93.00;;;;;;5073306;28;20028;-37
2021/10/13 03:31:44;;;;;;;11.65;4.68;;;5.60;93.00;;;;;;5072939;28;20028;-37
2021/10/13 03:34:12;;;;;;;13.98;5.30;;;5.50;93.00;;;;;;5072719;28;20021;-37
2021/10/13 03:36:49;;;;;;;7.57;4.07;;;5.50;93.10;;;;;;5054863;28;20028;-37
2021/10/13 03:39:15;;;;;;;6.93;3.83;;;5.40;93.00;;;;;;5073152;28;20032;-37
2021/10/13 03:41:42;;;;;;;9.35;4.85;;;5.30;93.10;;;;;;5072846;28;20020;-37
2021/10/13 03:44:07;;;;;;;7.10;4.50;;;5.50;93.10;;;;;;5072772;28;20033;-38
2021/10/13 03:46:34;;;;;;;12.35;4.80;;;5.50;92.90;;;;;;5072603;28;20040;-37
2021/10/13 03:49:00;;;;;;;10.63;5.47;;;5.50;92.70;;;;;;5072998;28;20032;-37
2021/10/13 03:51:26;;;;;;;8.13;5.20;;;5.50;92.70;;;;;;5072680;28;20040;-37
2021/10/13 03:53:52;;;;;;;19.77;6.78;;;5.50;92.60;;;;;;5072583;28;20035;-37
2021/10/13 03:56:19;;;;;;;11.82;5.82;;;5.50;92.70;;;;;;5072029;28;20029;-37
2021/10/13 03:58:45;;;;;;;13.27;6.63;;;5.50;92.90;;;;;;5071875;28;20032;-37
2021/10/13 04:01:12;;;;;;;11.23;5.78;;;5.60;92.90;;;;;;5072215;28;20423;-37
2021/10/13 04:03:38;;;;;;;14.27;5.10;;;5.70;92.90;;;;;;5071920;28;20020;-37
2021/10/13 04:06:04;;;;;;;10.02;5.30;;;5.70;92.80;;;;;;5072539;28;20119;-37
2021/10/13 04:08:30;;;;;;;11.38;5.70;;;5.60;92.90;;;;;;5071951;28;20055;-38
2021/10/13 04:10:55;;;;;;;11.30;4.57;;;5.60;93.10;;;;;;5071996;28;20024;-37
2021/10/13 04:13:21;;;;;;;17.40;6.07;;;5.60;93.20;;;;;;5072016;28;20090;-38
2021/10/13 04:15:47;;;;;;;11.35;4.88;;;5.70;93.20;;;;;;5072071;28;20024;-37
2021/10/13 04:18:13;;;;;;;7.93;5.10;;;5.60;93.10;;;;;;5072091;28;20401;-37
2021/10/13 04:20:38;;;;;;;12.27;5.15;;;5.70;93.10;;;;;;5072202;28;20056;-37
2021/10/13 04:23:04;;;;;;;12.82;5.53;;;5.80;93.10;;;;;;5072005;28;20065;-37
2021/10/13 04:25:29;;;;;;;19.35;6.53;;;6.10;93.00;;;;;;5072134;28;20043;-37
2021/10/13 04:27:55;;;;;;;13.15;6.78;;;6.20;92.50;;;;;;5072620;28;20551;-38
2021/10/13 04:30:21;;;;;;;17.80;7.57;;;6.20;92.20;;;;;;5072423;28;20029;-37
2021/10/13 04:32:46;;;;;;;19.75;9.13;;;6.30;91.80;;;;;;5072832;28;20028;-37
2021/10/13 04:35:12;;;;;;;11.48;7.20;;;6.30;91.70;;;;;;5072619;28;20024;-37
2021/10/13 04:37:38;;;;;;;15.98;8.65;;;6.40;91.60;;;;;;5072196;28;20024;-37
2021/10/13 04:40:05;;;;;;;15.52;7.03;;;6.40;91.60;;;;;;5072544;28;20420;-37
2021/10/13 04:42:31;;;;;;;11.38;8.20;;;6.50;91.80;;;;;;5072450;28;20520;-37
2021/10/13 04:44:57;;;;;;;19.50;8.95;;;6.20;91.80;;;;;;5072207;28;20241;-37
2021/10/13 04:47:22;;;;;;;22.23;8.57;;;6.20;92.20;;;;;;5072170;28;20021;-37
2021/10/13 04:49:48;;;;;;;14.52;9.77;;;6.20;92.30;;;;;;5072229;28;20119;-37
2021/10/13 04:52:14;;;;;;;19.92;10.15;;;6.30;92.50;;;;;;5072068;28;20029;-37
2021/10/13 04:54:40;;;;;;;17.58;10.68;;;6.30;92.40;;;;;;5072069;28;20059;-37
2021/10/13 04:57:06;;;;;;;18.63;10.48;;;6.30;92.30;;;;;;5071976;28;20074;-37
2021/10/13 04:59:32;;;;;;;19.05;9.98;;;6.30;92.60;;;;;;5075378;28;20028;-37
2021/10/13 05:01:58;;;;;;;15.95;9.18;;;6.10;92.80;;;;;;5075859;28;20522;-37
2021/10/13 05:04:23;;;;;;;19.20;10.05;;;6.10;93.20;;;;;;5075524;28;20063;-38
2021/10/13 05:06:49;;;;;;;18.40;11.93;;;6.20;93.40;;;;;;5075807;28;20094;-38
2021/10/13 05:09:15;;;;;;;17.75;9.43;;;6.30;93.40;;;;;;5075504;28;20056;-38
2021/10/13 05:11:41;;;;;;;23.52;10.10;;;6.30;93.30;;;;;;5075500;28;20423;-38
2021/10/13 05:14:07;;;;;;;27.30;12.77;;;6.30;93.10;;;;;;5075838;28;20024;-37
2021/10/13 05:16:34;;;;;;;27.80;11.77;;;6.30;93.00;;;;;;5075372;28;20469;-37
2021/10/13 05:19:00;;;;;;;29.00;12.75;;;6.20;93.00;;;;;;5058038;28;20024;-38
2021/10/13 05:21:26;;;;;;;20.67;11.85;;;6.20;93.20;;;;;;5075679;28;20024;-38
2021/10/13 05:23:52;;;;;;;30.98;13.45;;;6.20;93.40;;;;;;5075289;28;20055;-37
2021/10/13 05:26:17;;;;;;;20.67;11.60;;;6.10;93.60;;;;;;5076266;28;20122;-37
2021/10/13 05:28:43;;;;;;;19.90;11.00;;;6.10;93.70;;;;;;5057600;28;20494;-40
2021/10/13 05:31:09;;;;;;;21.02;11.63;;;6.10;93.80;;;;;;5075180;28;20024;-37
2021/10/13 05:33:34;;;;;;;24.05;12.10;;;6.30;93.90;;;;;;5075265;28;20052;-38
2021/10/13 05:36:00;;;;;;;24.40;12.60;;;6.30;93.70;;;;;;5074882;28;20404;-37
2021/10/13 05:38:25;;;;;;;23.33;13.60;;;6.40;93.40;;;;;;5075033;28;20023;-37
2021/10/13 05:40:51;;;;;;;28.65;13.98;;;6.40;93.20;;;;;;5074762;28;20047;-38
2021/10/13 05:43:17;;;;;;;22.15;12.85;;;6.40;93.00;;;;;;5075190;28;20039;-39
2021/10/13 05:45:42;;;;;;;26.00;13.68;;;6.40;92.90;;;;;;5074805;28;20029;-37
2021/10/13 05:48:08;;;;;;;24.73;13.25;;;6.40;92.80;;;;;;5075548;28;20029;-37
2021/10/13 05:50:34;;;;;;;21.92;12.20;;;6.40;93.00;;;;;;5074739;28;20033;-37
2021/10/13 05:52:59;;;;;;;27.83;12.30;;;6.40;93.10;;;;;;5074897;28;20033;-37
2021/10/13 05:55:25;;;;;;;24.27;11.85;;;6.30;93.10;;;;;;5074815;28;20103;-37
2021/10/13 05:57:51;;;;;;;34.47;12.73;;;6.30;93.40;;;;;;5074910;28;20084;-37
2021/10/13 06:00:18;;;;;;;24.42;13.65;;;6.50;93.50;;;;;;5075596;28;20074;-37
2021/10/13 06:02:44;;;;;;;24.15;10.77;;;6.50;93.20;;;;;;5074496;28;20040;-37
2021/10/13 06:05:10;;;;;;;22.98;12.32;;;6.50;93.20;;;;;;5074426;28;20048;-37
2021/10/13 06:07:36;;;;;;;24.83;11.65;;;6.50;93.10;;;;;;5074731;28;20025;-38
2021/10/13 06:10:03;;;;;;;23.83;11.25;;;6.40;93.00;;;;;;5073435;28;20020;-37
2021/10/13 06:12:28;;;;;;;29.33;13.23;;;6.50;93.20;;;;;;5056276;28;20436;-37
2021/10/13 06:14:54;;;;;;;27.58;12.52;;;6.50;93.30;;;;;;5074534;28;20063;-38
2021/10/13 06:17:21;;;;;;;19.83;11.18;;;6.50;93.30;;;;;;5074148;28;20020;-37
2021/10/13 06:19:46;;;;;;;23.35;12.20;;;6.40;93.30;;;;;;5074080;28;20021;-38
2021/10/13 06:22:12;;;;;;;22.77;12.90;;;6.60;93.50;;;;;;5073880;28;20024;-37
2021/10/13 06:24:39;;;;;;;23.17;12.52;;;6.70;93.40;;;;;;5073858;28;20473;-38
2021/10/13 06:27:05;;;;;;;24.33;11.25;;;6.80;93.00;;;;;;5074234;28;20032;-38
2021/10/13 06:29:32;;;;;;;17.98;11.52;;;6.80;92.90;;;;;;5073623;28;20102;-37
2021/10/13 06:31:57;;;;;;;30.20;12.35;;;7.00;92.70;;;;;;5073791;28;20029;-37
2021/10/13 06:34:23;;;;;;;23.65;10.38;;;7.00;92.60;;;;;;5073940;28;20063;-37
2021/10/13 06:36:49;;;;;;;22.17;11.55;;;7.00;92.60;;;;;;5073568;28;20036;-38
2021/10/13 06:39:14;;;;;;;22.23;11.23;;;7.00;92.60;;;;;;5073568;28;20078;-37
2021/10/13 06:41:40;;;;;;;19.25;9.90;;;6.90;92.80;;;;;;5073479;28;20020;-38
2021/10/13 06:44:06;;;;;;;18.73;11.52;;;7.10;92.90;;;;;;5073626;28;20044;-38
2021/10/13 06:46:31;;;;;;;27.33;11.75;;;7.30;92.60;;;;;;5072974;28;20028;-37
2021/10/13 06:48:57;;;;;;;25.10;11.45;;;7.30;92.40;;;;;;5072871;28;20441;-37
2021/10/13 06:51:23;;;;;;;19.85;10.13;;;7.50;92.30;;;;;;5054734;28;20072;-38
2021/10/13 06:53:48;;;;;;;14.50;10.73;;;7.60;91.50;;;;;;5073887;28;20056;-38
2021/10/13 06:56:15;;;;;;;27.70;10.70;;;7.70;91.60;;;;;;5055987;28;20098;-38
2021/10/13 06:58:40;;;;;;;26.00;12.43;;;7.70;91.60;;;;;;5073357;28;20027;-37
2021/10/13 07:01:06;;;;;;;22.80;9.18;;;7.80;91.70;;;;;;5073299;28;20096;-39
2021/10/13 07:03:32;;;;;;;20.00;9.60;;;7.50;91.80;;;;;;5074002;28;20037;-38
2021/10/13 07:05:57;;;;;;;27.33;11.50;;;7.60;92.00;;;;;;5054900;28;20136;-38
2021/10/13 07:08:23;;;;;;;16.25;9.93;;;7.70;92.20;;;;;;5072900;28;20234;-37
2021/10/13 07:10:49;;;;;;;24.02;9.68;;;7.50;92.20;;;;;;5038221;28;20028;-37
2021/10/13 07:13:15;;;;;;;15.52;8.98;;;7.40;92.50;;;;;;5072883;28;20103;-38
2021/10/13 07:15:40;;;;;;;15.30;8.88;;;7.60;92.50;;;;;;5072845;28;20165;-38
2021/10/13 07:18:06;;;;;;;22.58;9.82;;;7.70;92.40;;;;;;5072570;28;20021;-38
2021/10/13 07:20:32;;;;;;;19.52;9.48;;;7.70;92.20;;;;;;5072071;28;20021;-38
2021/10/13 07:22:57;;;;;;;22.58;11.93;;;7.80;92.20;;;;;;5072375;28;20086;-38
2021/10/13 07:25:25;;;;;;;22.20;10.63;;;7.80;92.20;;;;;;5072711;28;20488;-38
2021/10/13 07:27:52;;;;;;;23.90;10.25;;;7.90;92.10;;;;;;5072681;28;20051;-37
2021/10/13 07:30:23;;;;;;;16.38;9.48;;;8.00;91.70;;;;;;5072856;28;20033;-37
2021/10/13 07:32:50;;;;;;;17.98;9.95;;;8.10;91.50;;;;;;5072696;28;20047;-37
2021/10/13 07:35:15;;;;;;;16.25;9.35;;;8.00;91.20;;;;;;5072308;28;20028;-36
2021/10/13 07:37:41;;;;;;;16.38;10.80;;;8.10;91.60;;;;;;5072627;28;20039;-37
2021/10/13 07:40:07;;;;;;;19.88;8.90;;;8.20;91.50;;;;;;5072563;28;20033;-37
2021/10/13 07:42:33;;;;;;;22.10;12.25;;;8.20;91.80;;;;;;5072660;28;20028;-37
2021/10/13 07:44:59;;;;;;;18.80;9.57;;;8.30;91.60;;;;;;5072319;28;20076;-37
2021/10/13 07:47:26;;;;;;;21.95;10.45;;;8.50;91.00;;;;;;5054280;28;20115;-38
2021/10/13 07:49:52;;;;;;;20.20;10.55;;;8.50;90.30;;;;;;5072448;28;20107;-36
2021/10/13 07:52:18;;;;;;;20.60;11.70;;;8.50;90.30;;;;;;5072140;28;20062;-37
2021/10/13 07:54:44;;;;;;;20.35;11.60;;;8.40;90.60;;;;;;5071586;28;20043;-37
2021/10/13 07:57:09;;;;;;;21.35;12.30;;;8.40;90.80;;;;;;5072043;28;20024;-37
2021/10/13 07:59:36;;;;;;;19.73;11.35;;;8.40;90.80;;;;;;5072193;28;20017;-38
2021/10/13 08:02:03;;;;;;;21.42;11.23;;;8.50;91.20;;;;;;5072440;28;20028;-37
2021/10/13 08:04:32;;;;;;;23.08;11.25;;;8.60;90.90;;;;;;5054150;28;20186;-38
2021/10/13 08:06:57;;;;;;;21.30;10.98;;;8.80;90.20;;;;;;5072587;28;20036;-36
2021/10/13 08:09:23;;;;;;;23.88;13.85;;;8.90;89.80;;;;;;5054221;28;20491;-37
2021/10/13 08:11:49;;;;;;;24.40;10.32;;;8.90;89.80;;;;;;5071966;28;20024;-37
2021/10/13 08:14:15;;;;;;;24.15;12.40;;;8.90;89.90;;;;;;5072171;28;20463;-37
2021/10/13 08:16:40;;;;;;;20.17;11.02;;;9.00;89.60;;;;;;5072190;28;20029;-37
2021/10/13 08:19:06;;;;;;;19.55;10.70;;;9.30;88.80;;;;;;5072003;28;20025;-37
2021/10/13 08:21:32;;;;;;;21.90;10.80;;;9.20;89.20;;;;;;5071827;28;20025;-37
2021/10/13 08:23:58;;;;;;;21.45;11.75;;;9.20;89.30;;;;;;5072032;28;20024;-37
2021/10/13 08:26:23;;;;;;;19.00;9.65;;;9.10;89.60;;;;;;5071845;28;20109;-37
2021/10/13 08:28:49;;;;;;;15.02;9.07;;;9.10;90.00;;;;;;5072855;28;20020;-37
2021/10/13 08:31:15;;;;;;;15.43;10.57;;;9.30;89.40;;;;;;5072175;28;20103;-37
2021/10/13 08:33:41;;;;;;;17.23;9.75;;;9.40;89.30;;;;;;5074103;28;20029;-38
2021/10/13 08:36:07;;;;;;;21.63;10.35;;;9.30;89.30;;;;;;5076319;28;20024;-36
2021/10/13 08:38:33;;;;;;;17.05;10.07;;;9.20;89.40;;;;;;5076219;28;20085;-37
2021/10/13 08:40:59;;;;;;;27.05;11.10;;;9.20;89.60;;;;;;5076244;28;20016;-39
2021/10/13 08:43:24;;;;;;;19.67;10.63;;;9.50;89.70;;;;;;5075735;28;20469;-38
2021/10/13 08:45:50;;;;;;;17.88;8.70;;;9.70;88.60;;;;;;5075368;28;20020;-38
2021/10/13 08:48:16;;;;;;;16.52;9.07;;;9.70;88.40;;;;;;5075543;28;20444;-38
2021/10/13 08:50:42;;;;;;;16.40;9.27;;;9.80;88.30;;;;;;5075847;28;20025;-38
2021/10/13 08:53:09;;;;;;;12.20;8.00;;;10.80;86.40;;;;;;5075773;28;20103;-38
2021/10/13 08:55:37;;;;;;;15.55;8.02;;;10.90;83.80;;;;;;5075657;28;20451;-37
2021/10/13 08:58:18;;;;;;;14.13;6.95;;;10.80;85.30;;;;;;5075760;28;20021;-37
2021/10/13 09:00:47;;;;;;;15.13;8.05;;;10.70;85.60;;;;;;5075697;28;20036;-37
2021/10/13 09:03:34;;;;;;;15.65;8.18;;;11.00;83.70;;;;;;5075612;28;20017;-37
2021/10/13 09:06:13;;;;;;;20.88;8.50;;;11.00;84.60;;;;;;5075266;28;20139;-37
2021/10/13 09:08:56;;;;;;;14.05;7.20;;;11.70;82.50;;;;;;5075389;28;20024;-48
2021/10/13 09:11:35;;;;;;;14.00;7.40;;;12.00;81.30;;;;;;5075413;28;20078;-49
2021/10/13 09:14:08;;;;;;;16.98;7.18;;;11.80;81.30;;;;;;5074892;28;20369;-50
2021/10/13 09:16:49;;;;;;;16.35;6.95;;;11.70;82.10;;;;;;5075379;28;20017;-50
2021/10/13 09:19:15;;;;;;;18.63;8.40;;;11.50;81.90;;;;;;5057195;28;20483;-48
2021/10/13 09:21:55;;;;;;;11.63;7.43;;;11.60;83.00;;;;;;5075374;28;20021;-49
2021/10/13 09:24:24;;;;;;;18.60;7.90;;;11.60;82.00;;;;;;5074822;28;20020;-51
2021/10/13 09:26:51;;;;;;;18.90;8.57;;;11.60;82.40;;;;;;5075204;28;20037;-50
2021/10/13 09:29:16;;;;;;;19.75;8.50;;;11.60;83.20;;;;;;5075178;28;20028;-51
2021/10/13 09:31:42;;;;;;;15.43;8.25;;;11.30;83.50;;;;;;5075080;28;20119;-51
2021/10/13 09:34:10;;;;;;;12.15;8.20;;;11.30;84.60;;;;;;5074964;28;20025;-49
2021/10/13 09:36:42;;;;;;;17.02;7.22;;;11.70;83.20;;;;;;5075153;28;20024;-48
2021/10/13 09:39:17;;;;;;;17.20;8.73;;;11.90;81.70;;;;;;5074718;28;20020;-48
2021/10/13 09:42:02;;;;;;;16.80;8.13;;;12.60;80.40;;;;;;5075457;28;20076;-48
2021/10/13 09:44:42;;;;;;;13.70;7.28;;;12.80;80.40;;;;;;5074568;28;20119;-47
2021/10/13 09:47:10;;;;;;;10.43;6.40;;;13.50;76.70;;;;;;5074874;28;20028;-49
2021/10/13 09:49:38;;;;;;;9.70;5.90;;;13.80;75.10;;;;;;5074687;28;20034;-48
2021/10/13 09:52:13;;;;;;;9.65;5.63;;;12.90;78.90;;;;;;5074546;28;20020;-50
2021/10/13 09:54:41;;;;;;;13.57;6.38;;;13.20;77.30;;;;;;5055752;28;20419;-47
2021/10/13 09:57:18;;;;;;;14.77;6.07;;;13.50;76.50;;;;;;5056141;28;20075;-49
2021/10/13 10:00:05;;;;;;;13.23;6.28;;;13.70;75.80;;;;;;5074520;28;20476;-50
2021/10/13 10:02:37;;;;;;;10.55;5.30;;;14.70;73.20;;;;;;5074106;28;20024;-53
2021/10/13 10:05:11;;;;;;;11.23;5.88;;;15.30;69.90;;;;;;5074265;28;20504;-49
2021/10/13 10:07:46;;;;;;;14.18;6.63;;;15.80;68.80;;;;;;5074094;28;20032;-49
2021/10/13 10:10:17;;;;;;;20.90;7.53;;;16.80;65.90;;;;;;5073883;28;20032;-49
2021/10/13 10:13:15;;;;;;;11.65;6.28;;;16.30;66.20;;;;;;5074093;28;20025;-50
2021/10/13 10:15:56;;;;;;;12.02;5.28;;;15.30;70.10;;;;;;5029427;28;20040;-48
2021/10/13 10:18:35;;;;;;;4.88;2.70;;;15.00;69.80;;;;;;5074029;28;20028;-50
2021/10/13 10:21:18;;;;;;;5.90;2.53;;;16.10;63.90;;;;;;5056475;28;20115;-49
2021/10/13 10:23:48;;;;;;;8.45;4.72;;;16.50;62.10;;;;;;5073853;28;20053;-52
2021/10/13 10:26:26;;;;;;;;;;;16.80;61.60;;;;;;5074113;28;20025;-51
2021/10/13 10:28:54;;;;;;;11.48;3.72;;;17.10;61.30;;;;;;5074026;28;19904;-49
2021/10/13 10:31:30;;;;;;;7.38;2.35;;;17.30;60.00;;;;;;5073901;28;20422;-48
2021/10/13 10:34:15;;;;;;;4.25;1.77;;;16.40;60.20;;;;;;5073636;28;20409;-49
2021/10/13 10:36:44;;;;;;;8.55;1.92;;;16.60;59.90;;;;;;5073815;28;20020;-48
2021/10/13 10:39:14;;;;;;;8.60;2.78;;;16.70;59.50;;;;;;5073598;28;20020;-50
2021/10/13 10:41:54;;;;;;;9.20;2.17;;;16.70;61.50;;;;;;5073004;28;20055;-48
2021/10/13 10:44:32;;;;;;;5.17;2.00;;;16.50;60.70;;;;;;5073443;28;20104;-48
2021/10/13 10:47:09;;;;;;;5.90;2.25;;;15.30;63.80;;;;;;5055083;28;20278;-48
2021/10/13 10:49:47;;;;;;;8.00;2.38;;;15.10;64.40;;;;;;5073516;28;20032;-50
2021/10/13 10:52:14;;;;;;;4.22;1.90;;;16.10;61.40;;;;;;5073773;28;20036;-47
2021/10/13 10:54:50;;;;;;;10.55;1.95;;;16.50;58.80;;;;;;5073089;28;20020;-47
2021/10/13 10:57:44;;;;;;;5.80;2.33;;;15.90;60.30;;;;;;5055577;28;20099;-49
2021/10/13 11:00:31;;;;;;;8.65;2.78;;;15.10;64.00;;;;;;5074079;28;20039;-51
2021/10/13 11:03:17;;;;;;;9.93;2.90;;;15.50;63.50;;;;;;5058925;28;20511;-50
2021/10/13 11:05:43;;;;;;;7.28;2.40;;;15.70;63.40;;;;;;5059493;28;20168;-49
2021/10/13 11:08:10;;;;;;;9.70;2.17;;;16.80;61.50;;;;;;5073086;28;20036;-52
2021/10/13 11:10:36;;;;;;;10.57;2.35;;;17.80;56.30;;;;;;5073081;28;20033;-49
2021/10/13 11:13:01;;;;;;;17.08;3.53;;;18.10;54.80;;;;;;5073177;28;20473;-51
2021/10/13 11:15:30;;;;;;;7.35;2.25;;;17.30;56.30;;;;;;5073178;28;20036;-51
2021/10/13 11:17:57;;;;;;;6.13;2.33;;;15.90;60.60;;;;;;5073075;28;20054;-49
2021/10/13 11:20:24;;;;;;;9.93;1.60;;;15.80;62.60;;;;;;5073260;28;20024;-47
2021/10/13 11:23:05;;;;;;;6.32;1.67;;;15.60;63.50;;;;;;5073180;28;20025;-50
2021/10/13 11:25:32;;;;;;;5.25;2.05;;;15.30;63.50;;;;;;5055683;28;20097;-48
2021/10/13 11:28:09;;;;;;;8.32;1.80;;;15.40;64.10;;;;;;5072885;28;20039;-51
2021/10/13 11:30:45;;;;;;;6.35;1.70;;;15.50;62.20;;;;;;5073439;28;20384;-50
2021/10/13 11:33:32;;;;;;;7.53;1.95;;;15.40;62.70;;;;;;5073320;28;20361;-52
2021/10/13 11:36:07;;;;;;;8.38;1.77;;;15.20;62.70;;;;;;5070019;28;20046;-48
2021/10/13 11:38:41;;;;;;;7.32;2.25;;;15.60;62.40;;;;;;5072984;28;20016;-48
2021/10/13 11:41:14;;;;;;;3.60;1.50;;;16.30;60.60;;;;;;5054565;28;20028;-47
2021/10/13 11:43:41;;;;;;;9.32;2.08;;;16.30;59.30;;;;;;5072607;28;20020;-50
2021/10/13 11:46:08;;;;;;;5.35;2.28;;;15.90;61.50;;;;;;5072659;28;20067;-51
2021/10/13 11:48:35;;;;;;;10.30;1.23;;;15.20;62.70;;;;;;5072279;28;20054;-52
2021/10/13 11:51:11;;;;;;;5.60;1.30;;;15.00;62.80;;;;;;5072600;28;20024;-49
2021/10/13 11:53:37;;;;;;;5.57;1.58;;;14.70;64.20;;;;;;5072178;28;20063;-53
2021/10/13 11:56:13;;;;;;;4.85;1.30;;;14.60;64.50;;;;;;5053885;28;20361;-50
2021/10/13 11:58:41;;;;;;;8.65;1.58;;;14.30;64.70;;;;;;5072039;28;20052;-48
2021/10/13 12:01:12;;;;;;;5.93;1.73;;;14.30;65.50;;;;;;5072075;28;20016;-47
2021/10/13 12:03:38;;;;;;;5.30;1.75;;;14.00;68.30;;;;;;5072877;28;20028;-49
2021/10/13 12:06:05;;;;;;;4.43;1.50;;;13.90;68.90;;;;;;5072566;28;20070;-49
2021/10/13 12:08:33;;;;;;;6.22;1.40;;;14.00;68.60;;;;;;5076175;28;20082;-49
2021/10/13 12:11:04;;;;;;;7.40;1.35;;;13.90;69.20;;;;;;5076716;28;20515;-47
2021/10/13 12:13:32;;;;;;;6.50;1.48;;;14.00;68.90;;;;;;5076073;28;20078;-48
2021/10/13 12:16:06;;;;;;;8.32;1.60;;;13.80;69.50;;;;;;5057725;28;20033;-47
2021/10/13 12:18:37;;;;;;;6.43;1.98;;;13.90;69.80;;;;;;5057956;28;20020;-48
2021/10/13 12:21:03;;;;;;;1.75;1.00;;;14.30;68.20;;;;;;5076766;28;20016;-48
2021/10/13 12:23:31;;;;;;;9.82;3.45;;;14.30;67.80;;;;;;5076424;28;20453;-47
2021/10/13 12:25:58;;;;;;;5.68;2.20;;;14.50;67.10;;;;;;5076220;28;20047;-48
2021/10/13 12:28:29;;;;;;;7.50;3.28;;;14.70;65.10;;;;;;5076510;28;20028;-52
2021/10/13 12:31:07;;;;;;;3.88;1.50;;;14.70;62.00;;;;;;5058662;28;20028;-48
2021/10/13 12:33:48;;;;;;;2.55;1.00;;;14.30;62.90;;;;;;5076328;28;20032;-48
2021/10/13 12:36:19;;;;;;;5.82;1.27;;;14.10;63.80;;;;;;5076103;28;20028;-47
2021/10/13 12:38:58;;;;;;;5.10;1.73;;;13.80;66.00;;;;;;5075918;28;20024;-47
2021/10/13 12:41:44;;;;;;;9.38;1.55;;;13.80;66.60;;;;;;5075659;28;20056;-50
2021/10/13 12:44:17;;;;;;;3.35;1.52;;;13.90;66.70;;;;;;5059638;28;20176;-49
2021/10/13 12:46:52;;;;;;;5.03;1.60;;;13.80;67.00;;;;;;5075742;28;20023;-50
2021/10/13 12:49:18;;;;;;;7.20;1.75;;;14.00;66.70;;;;;;5075639;28;20314;-47
2021/10/13 12:51:59;;;;;;;6.55;1.20;;;14.00;66.70;;;;;;5058218;28;20032;-48
2021/10/13 12:54:31;;;;;;;3.08;1.10;;;13.90;67.20;;;;;;5057471;28;20508;-49
2021/10/13 12:56:57;;;;;;;3.75;1.50;;;13.90;68.00;;;;;;5075288;28;20017;-48